createdAt,value
2023-03-06T04:42:04.560Z,3.48
2023-03-06T04:45:08.550Z,3.48
2023-03-06T04:48:15.093Z,2.98
2023-03-06T04:51:17.907Z,2.92
2023-03-06T04:54:23.559Z,2.90
2023-03-06T04:57:26.596Z,2.91
2023-03-06T05:00:31.514Z,2.91
2023-03-06T05:03:34.618Z,2.92
2023-03-06T05:06:37.160Z,2.86
2023-03-06T05:09:40.018Z,2.87
2023-03-06T05:12:43.112Z,2.89
2023-03-06T05:15:46.004Z,2.88
2023-03-06T05:18:50.781Z,2.87
2023-03-06T05:21:53.876Z,2.85
2023-03-06T05:24:56.499Z,2.89
2023-03-06T05:27:59.307Z,2.89
2023-03-06T05:31:03.457Z,2.89
2023-03-06T05:34:06.481Z,2.90
2023-03-06T05:37:09.121Z,2.96
2023-03-06T05:40:12.792Z,3.02
2023-03-06T05:43:15.592Z,3.04
2023-03-06T05:46:18.615Z,3.05
2023-03-06T05:49:21.626Z,2.99
2023-03-06T05:52:24.849Z,2.96
2023-03-06T05:55:27.609Z,2.98
2023-03-06T05:58:31.854Z,3.09
2023-03-06T06:01:34.617Z,3.15
2023-03-06T06:04:37.480Z,3.14
2023-03-06T06:07:40.810Z,3.28
2023-03-06T06:10:43.746Z,3.18
2023-03-06T06:13:48.009Z,3.12
2023-03-06T06:16:51.129Z,3.11
2023-03-06T06:19:53.729Z,3.11
2023-03-06T06:22:56.932Z,3.18
2023-03-06T06:26:04.597Z,3.23
2023-03-06T06:29:08.238Z,3.26
2023-03-06T06:32:11.458Z,3.31
2023-03-06T06:35:14.424Z,3.32
2023-03-06T06:38:17.549Z,3.34
2023-03-06T06:44:45.308Z,3.29
2023-03-06T06:47:50.267Z,3.36
2023-03-06T06:51:00.140Z,3.45
2023-03-06T06:54:03.570Z,3.62
2023-03-06T06:57:06.234Z,3.73
2023-03-06T07:00:12.824Z,3.79
2023-03-06T07:03:15.697Z,3.75
2023-03-06T07:06:22.186Z,3.84
2023-03-06T07:09:24.875Z,3.92
2023-03-06T07:12:27.739Z,4.02
2023-03-06T07:15:30.824Z,4.01
2023-03-06T07:18:33.847Z,4.07
2023-03-06T07:21:36.795Z,4.14
2023-03-06T07:24:39.669Z,4.26
2023-03-06T07:27:42.319Z,4.32
2023-03-06T07:30:45.230Z,4.26
2023-03-06T07:33:52.418Z,4.27
2023-03-06T07:36:56.253Z,4.34
2023-03-06T07:39:59.089Z,4.45
2023-03-06T07:43:17.146Z,4.58
2023-03-06T07:46:22.647Z,4.62
2023-03-06T07:49:25.718Z,4.67
2023-03-06T07:52:29.778Z,4.66
2023-03-06T07:55:34.793Z,4.53
2023-03-06T07:58:40.019Z,4.45
2023-03-06T08:01:42.965Z,4.46
2023-03-06T08:04:51.590Z,4.41
2023-03-06T08:07:54.053Z,4.27
2023-03-06T08:10:56.867Z,4.18
2023-03-06T08:14:00.422Z,4.09
2023-03-06T08:17:03.414Z,4.11
2023-03-06T08:20:07.269Z,4.06
2023-03-06T08:23:10.897Z,3.94
2023-03-06T08:26:25.513Z,3.78
2023-03-06T08:29:28.353Z,4.03
2023-03-06T08:32:30.964Z,4.25
2023-03-06T08:35:33.954Z,4.57
2023-03-06T08:38:36.639Z,4.70
2023-03-06T08:41:40.604Z,4.84
2023-03-06T08:44:43.238Z,4.98
2023-03-06T08:47:46.210Z,5.21
2023-03-06T08:50:49.651Z,5.40
2023-03-06T08:53:52.874Z,5.48
2023-03-06T08:56:55.641Z,5.52
2023-03-06T08:59:58.565Z,6.02
2023-03-06T09:03:01.198Z,6.61
2023-03-06T09:06:04.151Z,6.89
2023-03-06T09:09:09.322Z,7.10
2023-03-06T09:12:12.461Z,7.21
2023-03-06T09:15:16.279Z,7.29
2023-03-06T09:18:19.383Z,7.46
2023-03-06T09:21:23.011Z,7.83
2023-03-06T09:24:26.025Z,8.38
2023-03-06T09:27:28.750Z,8.71
2023-03-06T09:30:31.745Z,8.56
2023-03-06T09:33:34.722Z,8.54
2023-03-06T09:36:49.509Z,8.58
2023-03-06T09:39:56.584Z,8.77
2023-03-06T09:42:59.743Z,8.90
2023-03-06T09:46:21.295Z,8.89
2023-03-06T09:49:29.270Z,8.65
2023-03-06T09:52:41.274Z,9.21
2023-03-06T09:55:51.212Z,9.84
2023-03-06T09:58:59.709Z,9.67
2023-03-06T10:02:16.044Z,9.77
2023-03-06T10:05:26.255Z,9.87
2023-03-06T10:08:31.902Z,9.93
2023-03-06T10:11:41.010Z,9.81
2023-03-06T10:14:48.910Z,9.59
2023-03-06T10:17:53.192Z,9.40
2023-03-06T10:21:13.410Z,9.54
2023-03-06T10:25:18.012Z,9.49
2023-03-06T10:28:34.432Z,9.26
2023-03-06T10:31:49.252Z,9.34
2023-03-06T10:34:53.688Z,9.20
2023-03-06T10:38:15.845Z,8.86
2023-03-06T10:41:24.286Z,8.38
2023-03-06T10:44:27.183Z,8.00
2023-03-06T10:47:35.343Z,7.76
2023-03-06T10:50:39.136Z,7.66
2023-03-06T10:53:53.248Z,7.62
2023-03-06T10:56:56.254Z,7.49
2023-03-06T11:00:26.763Z,7.33
2023-03-06T11:03:31.372Z,7.45
2023-03-06T11:06:38.014Z,7.57
2023-03-06T11:09:42.854Z,7.69
2023-03-06T11:13:03.115Z,7.73
2023-03-06T11:16:15.118Z,7.50
2023-03-06T11:19:29.209Z,7.67
2023-03-06T11:22:32.660Z,7.93
2023-03-06T11:25:42.724Z,8.27
2023-03-06T11:29:21.144Z,8.32
2023-03-06T11:32:31.273Z,8.36
2023-03-06T11:35:50.857Z,8.50
2023-03-06T11:38:54.327Z,8.46
2023-03-06T11:42:24.732Z,8.51
2023-03-06T11:45:42.422Z,8.56
2023-03-06T11:49:30.958Z,8.48
2023-03-06T11:53:03.608Z,8.50
2023-03-06T11:56:18.935Z,8.30
2023-03-06T11:59:53.084Z,8.16
2023-03-06T12:03:16.156Z,8.07
2023-03-06T12:06:34.185Z,7.96
2023-03-06T12:13:27.824Z,8.10
2023-03-06T12:16:53.219Z,8.23
2023-03-06T12:20:16.530Z,8.36
2023-03-06T12:23:40.707Z,8.24
2023-03-06T12:26:56.010Z,8.37
2023-03-06T12:30:19.384Z,8.61
2023-03-06T12:33:38.109Z,8.62
2023-03-06T12:36:59.422Z,8.57
2023-03-06T12:40:27.116Z,8.45
2023-03-06T12:43:48.491Z,8.49
2023-03-06T12:47:02.032Z,8.70
2023-03-06T12:50:33.582Z,8.80
2023-03-06T12:53:37.975Z,8.66
2023-03-06T12:56:42.295Z,8.42
2023-03-06T12:59:50.056Z,8.17
2023-03-06T13:03:01.762Z,8.02
2023-03-06T13:06:32.437Z,7.75
2023-03-06T13:09:58.286Z,7.67
2023-03-06T13:13:33.875Z,7.38
2023-03-06T13:16:36.855Z,7.38
2023-03-06T13:19:39.756Z,7.38
2023-03-06T13:22:44.950Z,7.42
2023-03-06T13:25:50.371Z,7.44
2023-03-06T13:28:55.018Z,7.42
2023-03-06T13:32:01.173Z,7.53
2023-03-06T13:35:29.803Z,7.47
2023-03-06T13:38:36.556Z,7.51
2023-03-06T13:41:42.094Z,7.64
2023-03-06T13:44:46.072Z,7.73
2023-03-06T13:48:10.991Z,7.88
2023-03-06T13:51:16.694Z,7.81
2023-03-06T13:54:24.833Z,7.88
2023-03-06T13:58:08.717Z,7.72
2023-03-06T14:01:26.658Z,7.73
2023-03-06T14:04:34.386Z,8.16
2023-03-06T14:07:43.293Z,8.42
2023-03-06T14:10:48.401Z,8.67
2023-03-06T14:13:54.393Z,8.53
2023-03-06T14:16:58.627Z,8.66
2023-03-06T14:20:12.798Z,8.95
2023-03-06T14:23:21.487Z,8.88
2023-03-06T14:26:26.147Z,8.24
2023-03-06T14:29:30.226Z,7.91
2023-03-06T14:32:32.917Z,7.83
2023-03-06T14:35:36.596Z,7.79
2023-03-06T14:38:48.457Z,7.66
2023-03-06T14:41:51.392Z,7.55
2023-03-06T14:45:03.180Z,7.45
2023-03-06T14:48:06.588Z,7.15
2023-03-06T14:51:20.982Z,6.74
2023-03-06T14:54:31.522Z,6.63
2023-03-06T14:57:34.417Z,6.46
2023-03-06T15:00:40.897Z,6.39
2023-03-06T15:03:51.571Z,6.13
2023-03-06T15:06:56.301Z,6.12
2023-03-06T15:10:00.716Z,6.28
2023-03-06T15:13:37.135Z,6.34
2023-03-06T15:16:39.839Z,6.45
2023-03-06T15:19:44.266Z,6.53
2023-03-06T15:22:50.808Z,6.44
2023-03-06T15:25:59.469Z,6.49
2023-03-06T15:29:11.167Z,6.36
2023-03-06T15:32:33.479Z,6.18
2023-03-06T15:35:38.083Z,5.97
2023-03-06T15:39:01.315Z,5.80
2023-03-06T15:42:25.021Z,5.76
2023-03-06T15:45:29.948Z,5.65
2023-03-06T15:48:35.326Z,5.58
2023-03-06T15:51:38.357Z,5.63
2023-03-06T15:54:41.032Z,5.56
2023-03-06T15:57:54.221Z,5.32
2023-03-06T16:00:57.274Z,5.13
2023-03-06T16:04:00.510Z,4.98
2023-03-06T16:07:03.216Z,5.03
2023-03-06T16:10:06.740Z,4.91
2023-03-06T16:13:19.333Z,4.88
2023-03-06T16:16:34.187Z,4.81
2023-03-06T16:19:36.868Z,4.65
2023-03-06T16:22:39.857Z,4.51
2023-03-06T16:25:45.868Z,4.44
2023-03-06T16:28:50.368Z,4.53
2023-03-06T16:31:55.463Z,4.48
2023-03-06T16:34:58.402Z,4.34
2023-03-06T16:38:01.013Z,4.28
2023-03-06T16:41:04.153Z,4.21
2023-03-06T16:44:07.886Z,4.22
